Time;durP1;ratioP1;P1;durP2;ratioP2;P2;SDS_P1;SDS_P2;PMS_P1;PMS_P2;Temp;Humidity;BMP_temperature;BMP_pressure;BME280_temperature;BME280_humidity;BME280_pressure;Samples;Min_cycle;Max_cycle;Signal;HPM_P1;HPM_P2
2021/01/24 00:00:30;;;;;;;8.85;4.18;;;1.20;99.90;;;;;;6194905;23;20028;-83
2021/01/24 00:02:56;;;;;;;5.45;4.15;;;1.20;99.90;;;;;;6193759;23;20031;-83
2021/01/24 00:05:22;;;;;;;5.63;4.05;;;1.20;99.90;;;;;;6167725;23;20436;-83
2021/01/24 00:07:48;;;;;;;8.48;5.03;;;1.20;99.90;;;;;;6195301;23;20005;-83
2021/01/24 00:10:16;;;;;;;11.48;4.78;;;;;;;;;;6194874;23;20039;-84
2021/01/24 00:12:43;;;;;;;7.82;5.15;;;1.30;99.90;;;;;;6179587;23;19985;-83
2021/01/24 00:15:09;;;;;;;7.95;5.05;;;1.40;99.90;;;;;;6212536;23;20013;-83
2021/01/24 00:17:34;;;;;;;6.50;4.22;;;1.40;99.90;;;;;;6198570;23;20008;-83
2021/01/24 00:20:00;;;;;;;7.03;3.92;;;1.40;99.90;;;;;;6195702;23;20008;-83
2021/01/24 00:22:29;;;;;;;7.82;4.13;;;1.50;99.90;;;;;;6194583;23;20001;-83
2021/01/24 00:24:55;;;;;;;5.18;3.97;;;1.50;99.90;;;;;;6200367;23;20004;-82
2021/01/24 00:27:21;;;;;;;6.20;3.72;;;1.60;99.90;;;;;;6213123;23;20005;-82
2021/01/24 00:29:47;;;;;;;6.47;3.80;;;1.60;99.90;;;;;;6201117;23;20128;-83
2021/01/24 00:32:13;;;;;;;7.72;3.30;;;1.60;99.90;;;;;;6204063;23;20005;-83
2021/01/24 00:34:40;;;;;;;7.55;3.72;;;1.60;99.90;;;;;;6195919;23;20005;-82
2021/01/24 00:37:06;;;;;;;6.50;3.65;;;1.60;99.90;;;;;;6195153;23;20052;-82
2021/01/24 00:39:32;;;;;;;5.85;3.55;;;1.60;99.90;;;;;;6167505;23;20337;-83
2021/01/24 00:41:58;;;;;;;5.75;3.63;;;1.70;99.90;;;;;;6192931;23;20020;-82
2021/01/24 00:44:24;;;;;;;6.43;3.88;;;1.70;99.90;;;;;;6193312;23;20005;-82
2021/01/24 00:46:50;;;;;;;5.45;3.80;;;1.70;99.90;;;;;;6169063;23;20005;-82
2021/01/24 00:49:15;;;;;;;5.60;3.35;;;1.80;99.90;;;;;;6196881;23;20108;-82
2021/01/24 00:51:41;;;;;;;5.20;3.40;;;1.80;99.90;;;;;;6173413;23;20088;-83
2021/01/24 00:54:07;;;;;;;5.30;3.00;;;1.80;99.90;;;;;;6196174;23;20005;-82
2021/01/24 00:56:33;;;;;;;4.22;2.85;;;1.80;99.90;;;;;;6199980;23;20025;-83
2021/01/24 00:58:58;;;;;;;5.55;3.58;;;1.90;99.90;;;;;;6198659;23;20082;-83
2021/01/24 01:01:24;;;;;;;5.43;3.33;;;1.90;99.90;;;;;;6183382;23;20001;-83
2021/01/24 01:03:50;;;;;;;6.57;3.53;;;1.90;99.90;;;;;;6208994;23;19985;-83
2021/01/24 01:06:15;;;;;;;5.80;3.72;;;1.90;99.90;;;;;;6208405;23;20257;-83
2021/01/24 01:08:41;;;;;;;6.65;4.13;;;1.90;99.90;;;;;;6208631;23;20051;-83
2021/01/24 01:11:07;;;;;;;8.18;3.97;;;1.90;99.90;;;;;;6208815;23;20076;-83
2021/01/24 01:13:32;;;;;;;5.63;3.63;;;1.80;99.90;;;;;;6180686;23;20037;-83
2021/01/24 01:15:58;;;;;;;5.95;3.60;;;1.80;99.90;;;;;;6202421;23;20408;-82
2021/01/24 01:18:24;;;;;;;6.90;4.40;;;1.80;99.90;;;;;;6194755;23;20433;-82
2021/01/24 01:20:49;;;;;;;4.78;3.42;;;1.70;99.90;;;;;;6211022;23;19989;-82
2021/01/24 01:23:15;;;;;;;6.35;3.90;;;1.70;99.90;;;;;;6211518;23;20013;-84
2021/01/24 01:25:41;;;;;;;9.02;4.43;;;1.70;99.90;;;;;;6211236;23;20017;-84
2021/01/24 01:28:06;;;;;;;4.72;3.47;;;1.70;99.90;;;;;;6210782;23;20002;-83
2021/01/24 01:30:32;;;;;;;5.45;3.00;;;1.80;99.90;;;;;;6199148;23;20002;-82
2021/01/24 01:32:58;;;;;;;6.13;3.78;;;1.80;99.90;;;;;;6171863;23;20025;-83
2021/01/24 01:35:23;;;;;;;6.22;3.53;;;1.80;99.70;;;;;;6174771;23;20017;-83
2021/01/24 01:37:49;;;;;;;5.90;3.28;;;1.80;99.50;;;;;;6195082;23;20451;-83
2021/01/24 01:40:15;;;;;;;6.03;3.10;;;1.80;99.30;;;;;;6195688;23;20005;-82
2021/01/24 01:42:40;;;;;;;4.88;2.90;;;1.80;98.60;;;;;;6170039;23;20007;-82
2021/01/24 01:45:07;;;;;;;5.00;2.97;;;1.80;98.20;;;;;;6182002;23;19997;-83
2021/01/24 01:47:34;;;;;;;4.65;2.70;;;1.70;98.00;;;;;;6176745;23;20028;-83
2021/01/24 01:50:00;;;;;;;6.15;3.00;;;1.60;98.50;;;;;;6197053;23;20036;-82
2021/01/24 01:52:27;;;;;;;5.88;3.38;;;1.60;98.20;;;;;;6171685;23;20001;-83
2021/01/24 01:54:53;;;;;;;3.60;2.53;;;1.60;98.20;;;;;;6172029;23;21038;-82
2021/01/24 01:57:23;;;;;;;3.67;2.25;;;1.60;97.80;;;;;;6199473;23;20024;-81
2021/01/24 01:59:50;;;;;;;3.20;2.10;;;1.60;97.50;;;;;;6179679;23;20001;-81
2021/01/24 02:02:25;;;;;;;3.55;2.08;;;1.60;97.20;;;;;;6209441;23;20008;-82
2021/01/24 02:04:59;;;;;;;2.70;1.70;;;1.60;96.70;;;;;;6183038;23;20000;-82
2021/01/24 02:07:42;;;;;;;2.75;1.40;;;1.60;96.20;;;;;;6201217;23;20016;-82
2021/01/24 02:10:20;;;;;;;2.40;1.35;;;1.70;95.30;;;;;;6194029;23;19997;-80
2021/01/24 02:13:35;;;;;;;2.88;1.73;;;1.80;94.90;;;;;;6193664;23;20055;-82
2021/01/24 02:16:03;;;;;;;5.10;2.42;;;1.90;94.30;;;;;;6191252;23;20465;-82
2021/01/24 02:18:32;;;;;;;1.58;1.00;;;1.80;94.20;;;;;;6193211;23;20005;-80
2021/01/24 02:21:09;;;;;;;1.42;0.90;;;1.90;94.00;;;;;;6192616;23;20029;-80
2021/01/24 02:23:37;;;;;;;0.55;0.55;;;2.00;93.80;;;;;;6193748;23;20000;-82
2021/01/24 02:26:19;;;;;;;1.38;0.70;;;2.10;93.60;;;;;;6168490;23;20401;-83
2021/01/24 02:29:06;;;;;;;1.17;0.50;;;2.10;93.50;;;;;;6197760;23;20002;-83
2021/01/24 02:31:33;;;;;;;1.20;0.80;;;2.10;93.80;;;;;;6196877;23;20000;-82
2021/01/24 02:34:00;;;;;;;0.50;0.47;;;2.20;93.60;;;;;;6196071;23;20007;-82
2021/01/24 02:36:28;;;;;;;0.93;0.40;;;2.20;93.60;;;;;;6197708;23;19997;-82
2021/01/24 02:38:55;;;;;;;0.73;0.40;;;2.20;93.80;;;;;;6198352;23;20001;-80
2021/01/24 02:41:23;;;;;;;1.17;0.60;;;2.20;93.80;;;;;;6195540;23;20095;-83
2021/01/24 02:43:49;;;;;;;0.95;0.30;;;2.20;94.10;;;;;;6168418;23;20008;-83
2021/01/24 02:46:16;;;;;;;0.40;0.40;;;2.20;94.30;;;;;;6202567;23;19985;-84
2021/01/24 02:48:50;;;;;;;0.60;0.35;;;2.20;94.80;;;;;;6184590;23;19999;-83
2021/01/24 02:51:17;;;;;;;0.30;0.30;;;2.20;95.00;;;;;;6199249;23;19997;-83
2021/01/24 02:53:44;;;;;;;0.25;0.25;;;2.10;95.40;;;;;;6194020;23;20001;-83
2021/01/24 02:56:10;;;;;;;0.60;0.20;;;2.10;95.60;;;;;;6168013;23;20076;-83
2021/01/24 02:58:37;;;;;;;0.40;0.40;;;2.10;95.60;;;;;;6195062;23;20030;-83
2021/01/24 03:01:03;;;;;;;0.40;0.30;;;2.10;95.80;;;;;;6203160;23;20003;-83
2021/01/24 03:03:29;;;;;;;0.60;0.40;;;2.10;96.00;;;;;;6194177;23;20007;-83
2021/01/24 03:05:54;;;;;;;0.68;0.47;;;2.10;96.10;;;;;;6194657;23;20023;-81
2021/01/24 03:08:21;;;;;;;0.75;0.30;;;2.10;96.20;;;;;;6194102;23;20001;-82
2021/01/24 03:10:47;;;;;;;1.17;0.20;;;2.10;96.40;;;;;;6193046;23;20072;-82
2021/01/24 03:13:30;;;;;;;0.25;0.22;;;2.10;96.40;;;;;;6193466;23;20020;-82
2021/01/24 03:15:56;;;;;;;0.20;0.20;;;2.10;96.70;;;;;;6194894;23;20005;-85
2021/01/24 03:18:24;;;;;;;0.35;0.20;;;2.00;96.80;;;;;;6194503;23;20004;-84
2021/01/24 03:20:52;;;;;;;2.03;0.40;;;2.00;96.90;;;;;;6193936;23;20001;-82
2021/01/24 03:23:20;;;;;;;0.20;0.20;;;2.00;97.20;;;;;;6194740;23;20001;-84
2021/01/24 03:25:46;;;;;;;0.45;0.20;;;2.00;97.30;;;;;;6194572;23;20057;-83
2021/01/24 03:28:13;;;;;;;0.30;0.30;;;2.00;97.50;;;;;;6196481;23;20008;-83
2021/01/24 03:30:39;;;;;;;0.17;0.10;;;2.00;97.60;;;;;;6196599;23;20024;-84
2021/01/24 03:33:05;;;;;;;0.85;0.30;;;2.00;97.70;;;;;;6194967;23;20008;-84
2021/01/24 03:35:31;;;;;;;0.38;0.30;;;1.90;97.70;;;;;;6195427;23;20368;-82
2021/01/24 03:37:57;;;;;;;1.48;0.28;;;1.90;98.20;;;;;;6168670;23;20001;-82
2021/01/24 03:40:23;;;;;;;0.10;0.10;;;1.90;98.00;;;;;;6198929;23;20012;-84
2021/01/24 03:42:48;;;;;;;1.17;0.30;;;1.90;98.10;;;;;;6209609;23;20012;-84
2021/01/24 03:45:14;;;;;;;0.30;0.30;;;1.90;98.30;;;;;;6209916;23;19996;-82
2021/01/24 03:47:40;;;;;;;0.40;0.40;;;1.90;98.60;;;;;;6211002;23;20009;-84
2021/01/24 03:50:07;;;;;;;0.85;0.30;;;1.80;98.70;;;;;;6174155;23;20036;-80
2021/01/24 03:52:33;;;;;;;0.28;0.28;;;1.80;98.90;;;;;;6200126;23;20381;-81
2021/01/24 03:54:58;;;;;;;0.65;0.30;;;1.80;98.90;;;;;;6197436;23;20005;-80
2021/01/24 03:57:25;;;;;;;1.13;0.30;;;1.80;98.80;;;;;;6200413;23;19994;-80
2021/01/24 03:59:53;;;;;;;0.80;0.35;;;1.90;98.50;;;;;;6174368;23;19991;-80
2021/01/24 04:02:19;;;;;;;0.30;0.30;;;1.90;98.10;;;;;;6201396;23;20259;-80
2021/01/24 04:04:45;;;;;;;0.10;0.10;;;1.90;97.80;;;;;;6201280;23;20001;-82
2021/01/24 04:07:11;;;;;;;0.28;0.28;;;1.90;97.60;;;;;;6207552;23;20009;-81
2021/01/24 04:09:37;;;;;;;0.60;0.30;;;2.00;97.20;;;;;;6183944;23;20005;-83
2021/01/24 04:12:03;;;;;;;0.20;0.20;;;2.00;96.70;;;;;;6211700;23;20013;-83
2021/01/24 04:14:29;;;;;;;0.57;0.20;;;2.10;96.20;;;;;;6212421;23;20123;-84
2021/01/24 04:16:54;;;;;;;0.17;0.17;;;2.10;95.80;;;;;;6186435;23;19989;-81
2021/01/24 04:19:20;;;;;;;0.25;0.25;;;2.10;95.40;;;;;;6212759;23;20125;-84
2021/01/24 04:21:46;;;;;;;0.30;0.30;;;2.10;95.30;;;;;;6187370;23;19998;-84
2021/01/24 04:24:11;;;;;;;0.50;0.22;;;2.10;94.90;;;;;;6212836;23;20037;-84
2021/01/24 04:26:37;;;;;;;0.63;0.25;;;2.10;94.20;;;;;;6212568;23;20024;-85
2021/01/24 04:29:03;;;;;;;0.43;0.28;;;2.10;93.90;;;;;;6211804;23;20013;-82
2021/01/24 04:31:28;;;;;;;0.30;0.17;;;2.20;93.30;;;;;;6210857;23;20017;-83
2021/01/24 04:33:54;;;;;;;0.20;0.20;;;2.20;93.00;;;;;;6184477;23;20009;-84
2021/01/24 04:36:20;;;;;;;0.35;0.28;;;2.20;92.60;;;;;;6210652;23;20016;-83
2021/01/24 04:38:46;;;;;;;1.15;0.20;;;2.20;92.20;;;;;;6182432;23;20002;-83
2021/01/24 04:41:12;;;;;;;1.45;0.22;;;2.30;91.80;;;;;;6204035;23;19997;-83
2021/01/24 04:43:38;;;;;;;1.15;0.20;;;2.30;91.60;;;;;;6195349;23;20029;-81
2021/01/24 04:46:08;;;;;;;0.40;0.20;;;2.30;91.60;;;;;;6163315;23;20012;-82
2021/01/24 04:48:37;;;;;;;0.45;0.20;;;2.20;91.80;;;;;;6161863;23;20012;-82
2021/01/24 04:51:04;;;;;;;3.00;0.52;;;2.20;91.80;;;;;;6191608;23;20016;-81
2021/01/24 04:53:31;;;;;;;0.15;0.15;;;2.20;91.60;;;;;;6191322;23;20005;-82
2021/01/24 04:55:57;;;;;;;1.65;0.13;;;2.10;91.70;;;;;;6192024;23;19996;-81
2021/01/24 04:58:26;;;;;;;0.43;0.20;;;2.10;91.70;;;;;;6192645;23;20051;-81
2021/01/24 05:00:52;;;;;;;0.20;0.20;;;2.10;91.70;;;;;;6169152;23;20005;-81
2021/01/24 05:03:18;;;;;;;0.50;0.20;;;2.00;91.70;;;;;;6195606;23;20023;-80
2021/01/24 05:05:43;;;;;;;0.10;0.10;;;2.00;91.50;;;;;;6171262;23;20081;-81
2021/01/24 05:08:09;;;;;;;0.63;0.10;;;2.00;91.60;;;;;;6169723;23;20012;-81
2021/01/24 05:10:35;;;;;;;0.85;0.40;;;2.00;91.50;;;;;;6191497;23;20063;-83
2021/01/24 05:13:01;;;;;;;1.58;0.10;;;1.90;91.60;;;;;;6166322;23;20013;-82
2021/01/24 05:15:28;;;;;;;0.10;0.10;;;2.00;91.20;;;;;;6169059;23;20060;-82
2021/01/24 05:17:54;;;;;;;0.40;0.08;;;2.00;91.00;;;;;;6192096;23;20001;-82
2021/01/24 05:20:25;;;;;;;0.10;0.10;;;1.90;90.90;;;;;;6168929;23;19997;-81
2021/01/24 05:22:51;;;;;;;1.23;0.22;;;1.90;90.70;;;;;;6192368;23;20070;-82
2021/01/24 05:25:19;;;;;;;0.20;0.10;;;1.90;90.70;;;;;;6175181;23;20029;-81
2021/01/24 05:27:44;;;;;;;0.00;0.00;;;1.90;90.60;;;;;;6177151;23;20440;-82
2021/01/24 05:30:12;;;;;;;0.20;0.20;;;1.80;90.60;;;;;;6206943;23;20011;-81
2021/01/24 05:32:43;;;;;;;0.13;0.10;;;1.80;90.40;;;;;;6169273;23;20005;-82
2021/01/24 05:35:13;;;;;;;1.75;0.30;;;1.80;90.30;;;;;;6194415;23;20005;-81
2021/01/24 05:37:43;;;;;;;0.15;0.10;;;1.80;90.30;;;;;;6195989;23;19997;-81
2021/01/24 05:40:09;;;;;;;0.47;0.10;;;1.70;90.30;;;;;;6175852;23;20011;-81
2021/01/24 05:42:39;;;;;;;0.22;0.17;;;1.60;90.60;;;;;;6201013;23;19997;-81
2021/01/24 05:45:13;;;;;;;3.00;0.20;;;1.60;90.70;;;;;;6196605;23;20008;-81
2021/01/24 05:47:41;;;;;;;0.98;0.10;;;1.60;90.70;;;;;;6195331;23;19997;-81
2021/01/24 05:50:15;;;;;;;2.25;0.25;;;1.60;90.90;;;;;;6168583;23;20073;-82
2021/01/24 05:52:45;;;;;;;0.03;0.03;;;1.60;90.80;;;;;;6194248;23;20012;-82
2021/01/24 05:55:34;;;;;;;0.45;0.20;;;1.50;90.60;;;;;;6194468;23;20081;-82
2021/01/24 05:58:15;;;;;;;0.47;0.28;;;1.50;90.90;;;;;;6198283;23;19997;-82
2021/01/24 06:00:43;;;;;;;0.20;0.20;;;1.50;90.90;;;;;;6196361;23;20001;-81
2021/01/24 06:03:11;;;;;;;0.28;0.20;;;1.30;90.90;;;;;;6206086;23;20057;-81
2021/01/24 06:05:37;;;;;;;0.10;0.10;;;1.30;90.60;;;;;;6172265;23;20016;-81
2021/01/24 06:08:04;;;;;;;0.28;0.28;;;1.30;90.40;;;;;;6203443;23;20009;-82
2021/01/24 06:10:30;;;;;;;0.50;0.20;;;1.30;90.30;;;;;;6166869;23;20005;-82
2021/01/24 06:13:01;;;;;;;0.25;0.08;;;1.30;90.70;;;;;;6164630;23;20036;-82
2021/01/24 06:15:29;;;;;;;1.10;0.25;;;1.20;90.40;;;;;;6191123;23;20504;-82
2021/01/24 06:18:04;;;;;;;0.73;0.10;;;1.20;90.40;;;;;;6190079;23;20001;-82
2021/01/24 06:20:39;;;;;;;0.15;0.15;;;1.20;90.50;;;;;;6163849;23;20015;-82
2021/01/24 06:23:14;;;;;;;0.10;0.10;;;1.20;90.80;;;;;;6164327;23;20007;-82
2021/01/24 06:25:44;;;;;;;0.15;0.15;;;1.20;90.40;;;;;;6163919;23;20345;-82
2021/01/24 06:28:18;;;;;;;0.60;0.10;;;1.20;90.50;;;;;;6202065;23;20001;-81
2021/01/24 06:30:46;;;;;;;0.38;0.20;;;1.20;90.70;;;;;;6171136;23;20436;-82
2021/01/24 06:33:16;;;;;;;1.00;0.95;;;1.10;90.50;;;;;;6189331;23;20005;-82
2021/01/24 06:35:47;;;;;;;5.55;3.05;;;1.10;90.20;;;;;;6189618;23;20032;-81
2021/01/24 06:38:29;;;;;;;1.27;0.65;;;1.10;89.80;;;;;;6189471;23;20001;-81
2021/01/24 06:40:57;;;;;;;1.05;1.05;;;1.10;89.60;;;;;;6190140;23;20001;-82
2021/01/24 06:43:37;;;;;;;0.38;0.38;;;1.10;89.20;;;;;;6202146;23;20007;-79
2021/01/24 06:46:32;;;;;;;0.88;0.52;;;1.10;89.50;;;;;;6205285;23;20035;-80
2021/01/24 06:48:58;;;;;;;1.17;0.47;;;1.10;89.30;;;;;;6205995;23;19997;-79
2021/01/24 06:51:39;;;;;;;0.20;0.15;;;1.10;89.40;;;;;;6201785;23;20376;-84
2021/01/24 06:54:07;;;;;;;0.43;0.20;;;1.10;89.60;;;;;;6193815;23;20421;-84
2021/01/24 06:56:44;;;;;;;0.20;0.20;;;1.10;89.40;;;;;;6194091;23;20027;-84
2021/01/24 06:59:11;;;;;;;0.20;0.20;;;1.20;89.50;;;;;;6193065;23;20009;-84
2021/01/24 07:01:38;;;;;;;0.30;0.30;;;1.20;89.20;;;;;;6168197;23;20185;-83
2021/01/24 07:04:28;;;;;;;0.35;0.10;;;1.20;88.50;;;;;;6166736;23;20060;-83
2021/01/24 07:06:55;;;;;;;0.30;0.30;;;1.20;88.60;;;;;;6193618;23;20016;-78
2021/01/24 07:09:26;;;;;;;0.10;0.10;;;1.30;88.50;;;;;;6197360;23;20051;-79
2021/01/24 07:12:02;;;;;;;0.50;0.23;;;1.30;87.80;;;;;;6173935;23;20012;-80
2021/01/24 07:14:41;;;;;;;0.20;0.20;;;1.30;88.30;;;;;;6179224;23;19989;-80
2021/01/24 07:17:07;;;;;;;0.30;0.30;;;1.20;88.50;;;;;;6204622;23;20055;-80
2021/01/24 07:19:35;;;;;;;0.20;0.20;;;1.30;89.00;;;;;;6202949;23;20016;-80
2021/01/24 07:22:01;;;;;;;0.30;0.30;;;1.30;88.30;;;;;;6177225;23;20001;-80
2021/01/24 07:24:27;;;;;;;0.85;0.20;;;1.30;88.20;;;;;;6203693;23;20336;-80
2021/01/24 07:26:56;;;;;;;1.55;0.40;;;1.20;88.80;;;;;;6204458;23;20005;-80
2021/01/24 07:29:22;;;;;;;0.10;0.10;;;1.20;88.70;;;;;;6211012;23;20088;-81
2021/01/24 07:31:49;;;;;;;0.17;0.17;;;1.10;89.50;;;;;;6210766;23;19996;-80
2021/01/24 07:34:14;;;;;;;0.38;0.38;;;1.10;89.60;;;;;;6209259;23;19986;-79
2021/01/24 07:36:46;;;;;;;0.25;0.25;;;1.10;89.20;;;;;;6204876;23;20041;-80
2021/01/24 07:39:12;;;;;;;0.30;0.30;;;1.30;89.50;;;;;;6175480;23;20024;-80
2021/01/24 07:41:38;;;;;;;0.43;0.38;;;1.40;88.50;;;;;;6202189;23;20353;-81
2021/01/24 07:44:04;;;;;;;0.73;0.40;;;1.60;87.90;;;;;;6201785;23;20451;-81
2021/01/24 07:46:30;;;;;;;0.30;0.30;;;1.60;86.60;;;;;;6205576;23;20001;-81
2021/01/24 07:48:55;;;;;;;0.63;0.20;;;1.60;86.40;;;;;;6207691;23;20519;-81
2021/01/24 07:51:21;;;;;;;0.55;0.20;;;1.70;86.30;;;;;;6205752;23;20004;-80
2021/01/24 07:53:47;;;;;;;0.20;0.20;;;1.80;85.10;;;;;;6198618;23;20019;-82
2021/01/24 07:56:13;;;;;;;0.05;0.05;;;1.70;84.90;;;;;;6204317;23;20004;-84
2021/01/24 07:58:40;;;;;;;0.75;0.40;;;1.80;84.70;;;;;;6181029;23;19985;-82
2021/01/24 08:01:05;;;;;;;0.30;0.30;;;1.90;84.20;;;;;;6206924;23;20049;-82
2021/01/24 08:03:34;;;;;;;0.75;0.68;;;2.00;83.40;;;;;;6176513;23;20008;-83
2021/01/24 08:06:11;;;;;;;0.30;0.30;;;2.00;82.70;;;;;;6172405;23;20024;-82
2021/01/24 08:08:38;;;;;;;0.35;0.30;;;1.90;81.50;;;;;;6197555;23;20081;-83
2021/01/24 08:11:05;;;;;;;0.57;0.40;;;1.70;81.70;;;;;;6198391;23;20005;-84
2021/01/24 08:13:31;;;;;;;0.57;0.28;;;1.60;81.50;;;;;;6195925;23;20005;-80
2021/01/24 08:15:59;;;;;;;0.20;0.20;;;1.60;81.60;;;;;;6197471;23;20020;-80
2021/01/24 08:18:26;;;;;;;0.85;0.50;;;1.50;80.90;;;;;;6194652;23;19997;-81
2021/01/24 08:20:53;;;;;;;1.58;0.40;;;1.60;80.00;;;;;;6170494;23;20056;-82
2021/01/24 08:23:19;;;;;;;0.57;0.30;;;1.60;80.60;;;;;;6192276;23;20013;-81
2021/01/24 08:25:45;;;;;;;1.42;0.50;;;1.70;79.90;;;;;;6192537;23;20005;-81
2021/01/24 08:28:11;;;;;;;1.00;0.40;;;1.80;78.80;;;;;;6168787;23;20052;-79
2021/01/24 08:30:40;;;;;;;0.55;0.32;;;1.80;78.40;;;;;;6167850;23;20013;-84
2021/01/24 08:33:11;;;;;;;0.93;0.60;;;1.90;78.50;;;;;;6194258;23;20005;-82
2021/01/24 08:35:37;;;;;;;0.85;0.40;;;2.00;77.50;;;;;;6165190;23;20009;-80
2021/01/24 08:38:03;;;;;;;0.40;0.40;;;2.10;76.50;;;;;;6192083;23;20326;-80
2021/01/24 08:40:36;;;;;;;0.68;0.32;;;2.10;76.40;;;;;;6192248;23;20012;-79
2021/01/24 08:43:06;;;;;;;0.30;0.30;;;2.20;76.00;;;;;;6191761;23;20485;-79
2021/01/24 08:45:33;;;;;;;0.40;0.40;;;2.20;74.30;;;;;;6167929;23;20032;-79
2021/01/24 08:48:01;;;;;;;2.10;0.40;;;2.20;73.30;;;;;;6192550;23;20569;-80
2021/01/24 08:50:47;;;;;;;0.75;0.40;;;2.00;74.20;;;;;;6193321;23;20001;-81
2021/01/24 08:53:13;;;;;;;0.40;0.40;;;2.10;75.00;;;;;;6164684;23;20012;-80
2021/01/24 08:55:46;;;;;;;0.30;0.30;;;2.30;74.90;;;;;;6192491;23;20005;-81
2021/01/24 08:58:29;;;;;;;0.80;0.30;;;2.50;74.60;;;;;;6167300;23;20069;-80
2021/01/24 09:01:05;;;;;;;0.30;0.30;;;2.60;73.40;;;;;;6192799;23;19997;-80
2021/01/24 09:03:31;;;;;;;0.73;0.55;;;2.70;72.30;;;;;;6192012;23;19993;-80
2021/01/24 09:06:16;;;;;;;1.30;0.30;;;2.90;88.80;;;;;;6166311;23;20017;-80
2021/01/24 09:08:46;;;;;;;3.92;0.55;;;;;;;;;;6193014;23;20005;-80
2021/01/24 09:11:13;;;;;;;3.20;0.40;;;2.60;80.60;;;;;;6167902;23;20009;-80
2021/01/24 09:13:41;;;;;;;0.65;0.65;;;2.60;70.10;;;;;;6192593;23;20001;-80
2021/01/24 09:16:07;;;;;;;0.47;0.40;;;2.80;68.90;;;;;;6168107;23;20005;-81
2021/01/24 09:18:36;;;;;;;0.80;0.47;;;2.40;66.60;;;;;;6196944;23;20008;-80
2021/01/24 09:21:06;;;;;;;1.00;0.68;;;2.20;65.60;;;;;;6193795;23;20033;-81
2021/01/24 09:23:35;;;;;;;0.82;0.52;;;2.10;65.70;;;;;;6192427;23;20001;-79
2021/01/24 09:26:01;;;;;;;2.45;0.75;;;2.10;66.30;;;;;;6191981;23;20075;-79
2021/01/24 09:28:26;;;;;;;8.55;0.70;;;2.20;66.50;;;;;;6196662;23;20001;-80
2021/01/24 09:30:53;;;;;;;2.75;0.90;;;2.40;66.20;;;;;;6173589;23;20032;-81
2021/01/24 09:33:19;;;;;;;3.05;0.70;;;2.60;64.50;;;;;;6174647;23;20004;-82
2021/01/24 09:35:45;;;;;;;0.90;0.73;;;2.80;63.00;;;;;;6198509;23;20001;-81
2021/01/24 09:38:11;;;;;;;0.60;0.60;;;2.70;63.00;;;;;;6197887;23;20027;-82
2021/01/24 09:40:36;;;;;;;1.58;0.60;;;2.50;62.10;;;;;;6196294;23;20001;-82
2021/01/24 09:43:02;;;;;;;2.17;0.70;;;2.60;62.60;;;;;;6198186;23;20077;-82
2021/01/24 09:45:28;;;;;;;2.28;0.85;;;2.30;62.50;;;;;;6196835;23;20031;-81
2021/01/24 09:47:55;;;;;;;0.93;0.60;;;2.30;62.50;;;;;;6197990;23;20005;-81
2021/01/24 09:50:22;;;;;;;4.50;0.95;;;2.20;62.10;;;;;;6198380;23;20008;-81
2021/01/24 09:52:51;;;;;;;4.90;1.00;;;2.10;62.30;;;;;;6198894;23;20072;-82
2021/01/24 09:55:16;;;;;;;3.22;1.95;;;2.20;62.90;;;;;;6200005;23;20008;-80
2021/01/24 09:57:45;;;;;;;3.28;1.42;;;2.30;63.00;;;;;;6196121;23;19997;-79
2021/01/24 10:00:14;;;;;;;3.38;0.77;;;2.20;62.40;;;;;;6173229;23;20001;-82
2021/01/24 10:02:39;;;;;;;1.48;0.60;;;2.20;63.00;;;;;;6199386;23;20012;-82
2021/01/24 10:05:06;;;;;;;3.20;0.68;;;2.20;62.10;;;;;;6172506;23;20008;-82
2021/01/24 10:07:31;;;;;;;2.15;0.95;;;2.00;62.40;;;;;;6199128;23;20017;-81
2021/01/24 10:09:57;;;;;;;1.75;0.70;;;2.10;62.20;;;;;;6199977;23;20076;-81
2021/01/24 10:12:23;;;;;;;2.60;1.13;;;2.10;61.90;;;;;;6199002;23;20012;-81
2021/01/24 10:14:48;;;;;;;3.50;0.95;;;2.10;61.30;;;;;;6172245;23;20008;-81
2021/01/24 10:17:14;;;;;;;1.13;0.68;;;2.20;61.40;;;;;;6198181;23;20001;-80
2021/01/24 10:19:41;;;;;;;2.22;0.90;;;2.20;61.70;;;;;;6199072;23;20123;-80
2021/01/24 10:22:07;;;;;;;2.88;0.70;;;2.30;62.40;;;;;;6171264;23;20004;-82
2021/01/24 10:24:32;;;;;;;3.72;0.90;;;2.20;61.20;;;;;;6197343;23;20024;-80
2021/01/24 10:26:58;;;;;;;4.22;2.15;;;2.30;60.70;;;;;;6195148;23;20055;-79
2021/01/24 10:29:25;;;;;;;1.95;1.33;;;2.40;60.20;;;;;;6169853;23;20005;-81
2021/01/24 10:31:51;;;;;;;2.97;0.85;;;2.50;60.30;;;;;;6203147;23;20057;-81
2021/01/24 10:34:16;;;;;;;4.32;0.95;;;2.40;60.00;;;;;;6203329;23;20004;-81
2021/01/24 10:36:45;;;;;;;4.05;0.98;;;2.30;59.80;;;;;;6210883;23;19997;-81
2021/01/24 10:39:10;;;;;;;0.82;0.73;;;2.30;60.10;;;;;;6186029;23;20064;-81
2021/01/24 10:41:36;;;;;;;5.50;1.48;;;2.30;59.50;;;;;;6211508;23;20001;-81
2021/01/24 10:44:02;;;;;;;2.92;0.90;;;2.20;59.90;;;;;;6210110;23;20045;-81
2021/01/24 10:46:28;;;;;;;1.50;0.63;;;2.00;60.40;;;;;;6186115;23;19997;-81
2021/01/24 10:48:53;;;;;;;3.25;1.45;;;2.00;60.60;;;;;;6210688;23;20000;-82
2021/01/24 10:51:19;;;;;;;6.10;0.77;;;2.00;61.10;;;;;;6201154;23;19997;-81
2021/01/24 10:53:49;;;;;;;2.70;0.80;;;2.30;64.90;;;;;;6171730;23;20001;-81
2021/01/24 10:56:16;;;;;;;1.25;0.80;;;2.40;59.90;;;;;;6173090;23;20459;-81
2021/01/24 10:58:42;;;;;;;1.65;0.68;;;2.50;59.90;;;;;;6191853;23;20076;-79
2021/01/24 11:01:08;;;;;;;3.17;1.20;;;2.50;59.60;;;;;;6177374;23;20005;-79
2021/01/24 11:06:32;;;;;;;1.05;0.68;;;2.50;60.60;;;;;;6224025;22;20020;-83
2021/01/24 11:08:58;;;;;;;1.55;0.68;;;2.50;59.80;;;;;;6197990;23;20032;-83
2021/01/24 11:11:24;;;;;;;3.28;0.90;;;2.30;59.70;;;;;;6201520;23;20028;-84
2021/01/24 11:13:50;;;;;;;2.58;0.70;;;2.30;59.50;;;;;;6195137;23;20099;-83
2021/01/24 11:16:15;;;;;;;0.80;0.75;;;2.20;59.20;;;;;;6199638;23;20005;-83
2021/01/24 11:18:41;;;;;;;2.22;0.90;;;2.20;59.80;;;;;;6171596;23;20054;-83
2021/01/24 11:21:07;;;;;;;1.50;0.70;;;2.10;59.70;;;;;;6168911;23;20036;-83
2021/01/24 11:23:39;;;;;;;3.60;1.00;;;2.20;59.80;;;;;;6167929;23;20009;-84
2021/01/24 11:26:04;;;;;;;1.90;0.70;;;2.30;59.60;;;;;;6169959;23;20005;-84
2021/01/24 11:28:30;;;;;;;3.83;1.05;;;2.40;58.50;;;;;;6169440;23;20013;-84
2021/01/24 11:30:55;;;;;;;0.98;0.65;;;2.50;59.00;;;;;;6195344;23;20028;-83
2021/01/24 11:33:21;;;;;;;2.08;0.68;;;2.50;58.40;;;;;;6168620;23;20005;-83
2021/01/24 11:35:47;;;;;;;1.10;0.60;;;2.60;58.00;;;;;;6167083;23;20032;-83
2021/01/24 11:38:12;;;;;;;2.78;1.10;;;2.70;57.80;;;;;;6168335;23;20054;-84
2021/01/24 11:40:38;;;;;;;4.57;1.20;;;2.50;57.00;;;;;;6169067;23;20001;-84
2021/01/24 11:43:04;;;;;;;2.95;1.00;;;2.40;57.80;;;;;;6195860;23;20001;-84
2021/01/24 11:45:29;;;;;;;0.68;0.57;;;2.40;58.10;;;;;;6203463;23;20016;-83
2021/01/24 11:47:55;;;;;;;1.33;0.93;;;2.40;57.70;;;;;;6211237;23;20023;-83
2021/01/24 11:50:21;;;;;;;3.35;0.90;;;2.30;58.00;;;;;;6200476;23;19998;-84
2021/01/24 11:52:47;;;;;;;1.73;1.13;;;2.20;58.30;;;;;;6195092;23;20008;-84
2021/01/24 11:55:13;;;;;;;2.90;0.88;;;2.40;58.80;;;;;;6196816;23;20067;-83
2021/01/24 11:57:41;;;;;;;3.03;1.38;;;2.50;58.30;;;;;;6197061;23;20024;-84
2021/01/24 12:00:08;;;;;;;1.20;0.90;;;2.50;58.00;;;;;;6197043;23;20008;-84
2021/01/24 12:02:34;;;;;;;1.10;0.60;;;2.50;57.90;;;;;;6197464;23;20065;-82
2021/01/24 12:05:00;;;;;;;1.13;0.68;;;2.60;57.80;;;;;;6196701;23;20005;-84
2021/01/24 12:07:25;;;;;;;3.50;0.80;;;2.50;57.60;;;;;;6172213;23;20109;-83
2021/01/24 12:09:53;;;;;;;1.50;0.65;;;2.50;58.20;;;;;;6171252;23;20019;-84
2021/01/24 12:12:18;;;;;;;1.33;0.80;;;2.60;58.30;;;;;;6195892;23;20016;-86
2021/01/24 12:14:44;;;;;;;2.55;0.73;;;2.80;57.80;;;;;;6176973;23;20032;-84
2021/01/24 12:17:23;;;;;;;;;;;;;;;;;;;;;
2021/01/24 12:20:25;;;;;;;2.95;1.15;;;2.90;57.00;;;;;;6194383;23;20031;-84
2021/01/24 12:23:04;;;;;;;5.72;1.23;;;2.80;57.40;;;;;;6166674;23;20005;-84
2021/01/24 12:25:49;;;;;;;;;;;;;;;;;;;;;
2021/01/24 12:28:24;;;;;;;1.55;0.70;;;2.90;57.50;;;;;;6192534;23;20024;-84
2021/01/24 12:31:10;;;;;;;1.58;0.88;;;3.00;57.50;;;;;;6165037;23;20009;-83
2021/01/24 12:33:35;;;;;;;0.80;0.80;;;3.10;57.50;;;;;;6164031;23;20097;-83
2021/01/24 12:36:01;;;;;;;2.42;0.88;;;2.80;57.30;;;;;;6168136;23;20017;-85
2021/01/24 12:38:29;;;;;;;2.88;1.02;;;2.50;57.90;;;;;;6169068;23;20076;-83
2021/01/24 12:40:58;;;;;;;1.17;0.75;;;2.70;58.50;;;;;;6169813;23;20069;-84
2021/01/24 12:43:24;;;;;;;1.63;0.70;;;2.90;57.60;;;;;;6172071;23;20333;-83
2021/01/24 12:45:52;;;;;;;1.88;0.90;;;3.30;56.40;;;;;;6168756;23;20005;-84
2021/01/24 12:48:28;;;;;;;6.82;0.98;;;3.40;55.70;;;;;;6194980;23;20001;-83
2021/01/24 12:50:54;;;;;;;2.15;1.40;;;3.90;55.20;;;;;;6200623;23;20069;-85
2021/01/24 12:53:20;;;;;;;1.88;0.75;;;4.50;53.50;;;;;;6168135;23;20001;-84
2021/01/24 12:55:46;;;;;;;3.03;0.90;;;4.30;52.70;;;;;;6195098;23;20328;-85
2021/01/24 12:58:14;;;;;;;2.55;1.10;;;3.80;53.90;;;;;;6168144;23;20532;-84
2021/01/24 13:00:40;;;;;;;1.63;0.93;;;3.70;54.90;;;;;;6168228;23;20005;-84
2021/01/24 13:03:06;;;;;;;2.25;0.55;;;4.30;53.70;;;;;;6172172;23;20005;-85
2021/01/24 13:08:09;;;;;;;1.58;0.98;;;3.70;54.10;;;;;;6211651;23;20060;-84
2021/01/24 13:10:58;;;;;;;3.08;0.98;;;3.50;55.00;;;;;;6177123;23;20005;-85